首页
METAR-TAF:

METAR-TAF

机场 :

图森, 亞利桑那州, 美国

纬度: 32-08-32N, 经度: 111-10-28W, 海拔: 737米

当前天气观测

该预报发布于41分钟前的01:47 UTC
风速3节,风向西
温度 16°C
湿度 100%
气压 1009 hPa
能見度: 16.1公里
阴天层高于4800英尺

METAR: KRYN 200147Z 26003KT 10SM OVC048 16/16 A2979

时间: 19:28 (02:28 UTC)


TAF: 丢失

超过4000个机场的气象观测和天气预报(METAR&TAF报告)。

可查询的气象台以黄色和红色小点在地图上表示。

将鼠标移到小点上方,可查看气象台名称。

然后点击查看天气观测和预报。

如需切换地图:点击带黑十字的绿色按钮放大地图;点击带横线的绿色按钮缩小地图;或者点击绿色箭头查看邻近地区的地图。


METAR-TAF: